Terminal Aerodrome Forecast
Issued by NWS

Home | Current Version | Previous Version | Graphics & Text | Print | Product List | Glossary On
Versions: 1 2 3 4 5 6 7 8 9 10 11 12 13 14 15 16 17 18
000
FTUS43 KABR 191720
TAFPIR
TAF
KPIR 191720Z 1918/2018 16011KT P6SM FEW250
     FM200400 13008KT P6SM VCSH BKN130 WS020/20030KT
     FM200700 16011KT P6SM -SHRA BKN120
     FM201100 25010KT P6SM VCSH BKN110
     FM201600 29014KT P6SM SCT200=

USA.gov is the U.S. government's official web portal to all federal, state and local government web resources and services.